createdAt,value
2023-07-03T00:00:19.615Z,3.80
2023-07-03T00:02:52.560Z,4.35
2023-07-03T00:05:20.796Z,3.60
2023-07-03T00:07:49.064Z,3.80
2023-07-03T00:10:17.809Z,3.10
2023-07-03T00:12:46.928Z,4.15
2023-07-03T00:15:15.320Z,3.70
2023-07-03T00:17:45.601Z,4.05
2023-07-03T00:20:15.713Z,3.47
2023-07-03T00:22:44.110Z,3.97
2023-07-03T00:25:12.031Z,3.75
2023-07-03T00:27:39.848Z,3.75
2023-07-03T00:30:10.334Z,3.15
2023-07-03T00:32:38.159Z,4.25
2023-07-03T00:35:07.848Z,3.33
2023-07-03T00:37:36.039Z,4.13
2023-07-03T00:40:04.816Z,3.70
2023-07-03T00:42:32.590Z,3.28
2023-07-03T00:45:00.339Z,3.45
2023-07-03T00:47:29.754Z,2.88
2023-07-03T00:49:57.614Z,4.00
2023-07-03T00:52:25.469Z,3.83
2023-07-03T00:54:54.522Z,4.00
2023-07-03T00:57:24.549Z,3.75
2023-07-03T00:59:52.456Z,4.18
2023-07-03T01:02:27.172Z,3.80
2023-07-03T01:05:01.857Z,3.50
2023-07-03T01:07:33.146Z,4.38
2023-07-03T01:10:07.038Z,3.78
2023-07-03T01:12:39.363Z,3.88
2023-07-03T01:15:11.183Z,3.90
2023-07-03T01:17:42.046Z,3.83
2023-07-03T01:20:18.106Z,4.05
2023-07-03T01:22:52.921Z,3.40
2023-07-03T01:25:25.448Z,4.07
2023-07-03T01:27:54.388Z,5.32
2023-07-03T01:30:23.566Z,4.28
2023-07-03T01:32:54.742Z,4.50
2023-07-03T01:35:24.957Z,4.03
2023-07-03T01:37:55.280Z,4.15
2023-07-03T01:40:27.614Z,3.88
2023-07-03T01:42:57.308Z,4.32
2023-07-03T01:45:25.097Z,4.25
2023-07-03T01:47:52.850Z,4.55
2023-07-03T01:50:24.765Z,4.65
2023-07-03T01:52:56.572Z,4.43
2023-07-03T01:55:33.096Z,4.32
2023-07-03T02:00:37.033Z,4.32
2023-07-03T02:03:12.376Z,5.20
2023-07-03T02:05:41.387Z,4.00
2023-07-03T02:08:11.198Z,3.97
2023-07-03T02:10:42.130Z,4.28
2023-07-03T02:13:09.860Z,4.90
2023-07-03T02:15:37.674Z,4.10
2023-07-03T02:18:05.786Z,4.97
2023-07-03T02:20:33.687Z,3.90
2023-07-03T02:23:01.415Z,4.13
2023-07-03T02:25:29.400Z,3.92
2023-07-03T02:27:58.525Z,5.15
2023-07-03T02:30:26.543Z,5.85
2023-07-03T02:32:54.442Z,4.57
2023-07-03T02:35:22.245Z,4.30
2023-07-03T02:37:49.932Z,4.55
2023-07-03T02:40:17.931Z,4.60
2023-07-03T02:42:45.670Z,4.63
2023-07-03T02:45:14.949Z,5.72
2023-07-03T02:47:42.657Z,5.63
2023-07-03T02:50:11.209Z,4.95
2023-07-03T02:52:39.109Z,4.07
2023-07-03T02:55:07.686Z,4.22
2023-07-03T02:57:35.416Z,4.28
2023-07-03T03:00:03.456Z,5.70
2023-07-03T03:02:32.609Z,5.07
2023-07-03T03:05:00.393Z,5.15
2023-07-03T03:07:29.286Z,3.78
2023-07-03T03:09:57.019Z,5.97
2023-07-03T03:12:24.804Z,4.65
2023-07-03T03:14:52.854Z,4.55
2023-07-03T03:17:20.578Z,5.50
2023-07-03T03:19:49.929Z,4.70
2023-07-03T03:22:17.682Z,4.18
2023-07-03T03:24:45.675Z,5.25
2023-07-03T03:27:14.577Z,4.20
2023-07-03T03:29:42.911Z,6.55
2023-07-03T03:32:10.952Z,5.13
2023-07-03T03:34:38.694Z,5.35
2023-07-03T03:37:08.061Z,5.03
2023-07-03T03:39:35.804Z,4.55
2023-07-03T03:42:03.532Z,5.28
2023-07-03T03:44:31.279Z,4.72
2023-07-03T03:46:59.036Z,4.90
2023-07-03T03:49:26.766Z,5.22
2023-07-03T03:51:55.023Z,4.88
2023-07-03T03:54:24.131Z,5.60
2023-07-03T03:56:51.899Z,4.97
2023-07-03T03:59:20.968Z,4.55
2023-07-03T04:01:49.568Z,4.72
2023-07-03T04:04:17.789Z,4.70
2023-07-03T04:06:45.612Z,5.88
2023-07-03T04:09:14.004Z,5.22
2023-07-03T04:11:43.170Z,5.13
2023-07-03T04:14:11.122Z,5.43
2023-07-03T04:16:38.998Z,6.32
2023-07-03T04:19:06.844Z,5.35
2023-07-03T04:21:34.597Z,5.35
2023-07-03T04:24:02.361Z,5.78
2023-07-03T04:26:30.112Z,5.25
2023-07-03T04:28:59.372Z,5.40
2023-07-03T04:31:27.261Z,4.38
2023-07-03T04:33:55.062Z,4.35
2023-07-03T04:36:23.050Z,4.05
2023-07-03T04:38:50.818Z,4.60
2023-07-03T04:41:19.514Z,5.45
2023-07-03T04:43:49.302Z,4.75
2023-07-03T04:46:19.848Z,5.63
2023-07-03T04:48:47.996Z,4.68
2023-07-03T04:51:15.936Z,5.57
2023-07-03T04:53:43.721Z,4.82
2023-07-03T04:56:12.514Z,5.57
2023-07-03T04:58:41.417Z,5.50
2023-07-03T05:01:13.270Z,5.03
2023-07-03T05:03:42.768Z,5.22
2023-07-03T05:06:10.757Z,5.90
2023-07-03T05:08:38.540Z,4.75
2023-07-03T05:11:06.666Z,5.13
2023-07-03T05:13:34.396Z,4.97
2023-07-03T05:16:02.277Z,5.75
2023-07-03T05:18:30.088Z,5.07
2023-07-03T05:20:59.224Z,6.18
2023-07-03T05:23:26.956Z,5.93
2023-07-03T05:25:54.708Z,5.53
2023-07-03T05:28:22.885Z,4.60
2023-07-03T05:30:55.428Z,4.95
2023-07-03T05:33:23.237Z,5.40
2023-07-03T05:35:54.558Z,6.10
2023-07-03T05:38:24.029Z,5.88
2023-07-03T05:40:51.910Z,5.78
2023-07-03T05:43:19.878Z,5.10
2023-07-03T05:45:49.173Z,5.63
2023-07-03T05:48:17.405Z,4.78
2023-07-03T05:50:46.044Z,5.80
2023-07-03T05:53:13.914Z,4.88
2023-07-03T05:55:44.674Z,4.60
2023-07-03T05:58:12.684Z,4.60
2023-07-03T06:00:40.695Z,4.03
2023-07-03T06:03:12.622Z,5.20
2023-07-03T06:05:40.459Z,4.50
2023-07-03T06:08:08.243Z,5.55
2023-07-03T06:10:36.014Z,5.13
2023-07-03T06:13:05.435Z,6.13
2023-07-03T06:15:35.592Z,4.85
2023-07-03T06:18:04.574Z,5.55
2023-07-03T06:20:32.614Z,4.57
2023-07-03T06:23:00.347Z,5.25
2023-07-03T06:25:28.301Z,5.18
2023-07-03T06:27:56.109Z,5.13
2023-07-03T06:30:25.339Z,5.00
2023-07-03T06:32:53.171Z,4.43
2023-07-03T06:35:21.167Z,5.72
2023-07-03T06:37:48.972Z,4.72
2023-07-03T06:40:17.259Z,4.82
2023-07-03T06:42:45.288Z,5.30
2023-07-03T06:45:14.042Z,4.78
2023-07-03T06:47:43.162Z,4.80
2023-07-03T06:50:11.549Z,5.10
2023-07-03T06:52:39.595Z,4.95
2023-07-03T06:55:07.787Z,5.30
2023-07-03T06:57:35.735Z,4.60
2023-07-03T07:00:06.733Z,4.45
2023-07-03T07:02:34.630Z,5.05
2023-07-03T07:05:04.319Z,4.72
2023-07-03T07:07:32.327Z,4.15
2023-07-03T07:10:00.136Z,5.15
2023-07-03T07:12:27.941Z,4.00
2023-07-03T07:14:55.734Z,4.75
2023-07-03T07:17:26.075Z,3.75
2023-07-03T07:20:01.191Z,4.25
2023-07-03T07:22:30.322Z,4.95
2023-07-03T07:24:58.065Z,4.65
2023-07-03T07:27:25.967Z,3.90
2023-07-03T07:29:53.693Z,4.15
2023-07-03T07:32:22.625Z,4.47
2023-07-03T07:34:50.427Z,4.75
2023-07-03T07:37:18.296Z,4.13
2023-07-03T07:39:47.518Z,4.53
2023-07-03T07:42:15.299Z,4.95
2023-07-03T07:44:43.028Z,4.95
2023-07-03T07:47:11.484Z,4.63
2023-07-03T07:49:40.971Z,3.92
2023-07-03T07:52:09.537Z,4.15
2023-07-03T07:54:37.311Z,3.97
2023-07-03T07:57:07.046Z,4.22
2023-07-03T07:59:35.750Z,3.95
2023-07-03T08:02:04.185Z,3.35
2023-07-03T08:04:32.125Z,3.78
2023-07-03T08:07:01.615Z,5.47
2023-07-03T08:09:29.395Z,4.07
2023-07-03T08:11:57.398Z,3.83
2023-07-03T08:14:26.520Z,3.55
2023-07-03T08:16:54.369Z,5.40
2023-07-03T08:19:22.312Z,3.90
2023-07-03T08:21:50.083Z,4.07
2023-07-03T08:24:18.499Z,4.07
2023-07-03T08:26:50.296Z,3.60
2023-07-03T08:29:18.074Z,3.55
2023-07-03T08:31:47.354Z,4.07
2023-07-03T08:34:15.749Z,4.50
2023-07-03T08:39:15.459Z,4.63
2023-07-03T08:41:52.577Z,4.65
2023-07-03T08:44:20.534Z,3.88
2023-07-03T08:47:06.158Z,4.53
2023-07-03T08:49:42.051Z,4.90
2023-07-03T08:52:10.021Z,4.28
2023-07-03T08:54:39.672Z,3.95
2023-07-03T08:57:11.848Z,3.53
2023-07-03T08:59:39.793Z,3.97
2023-07-03T09:02:16.729Z,3.70
2023-07-03T09:05:02.252Z,3.30
2023-07-03T09:07:36.476Z,4.40
2023-07-03T09:10:14.074Z,3.25
2023-07-03T09:12:50.461Z,3.70
2023-07-03T09:15:24.112Z,4.75
2023-07-03T09:17:55.273Z,4.68
2023-07-03T09:20:26.091Z,3.88
2023-07-03T09:22:59.601Z,3.83
2023-07-03T09:25:34.052Z,3.25
2023-07-03T09:28:05.143Z,3.40
2023-07-03T09:30:33.987Z,3.47
2023-07-03T09:33:03.369Z,3.00
2023-07-03T09:35:36.330Z,3.35
2023-07-03T09:38:06.647Z,3.70
2023-07-03T09:40:38.533Z,3.67
2023-07-03T09:43:14.072Z,3.90
2023-07-03T09:45:44.340Z,3.97
2023-07-03T09:48:19.833Z,4.15
2023-07-03T09:51:01.908Z,3.50
2023-07-03T09:56:03.645Z,3.58
2023-07-03T09:58:32.138Z,4.25
2023-07-03T10:01:02.181Z,3.92
2023-07-03T10:03:34.005Z,4.15
2023-07-03T10:08:48.677Z,3.50
2023-07-03T10:11:23.766Z,3.75
2023-07-03T10:13:53.335Z,3.60
2023-07-03T10:16:24.638Z,3.33
2023-07-03T10:18:56.488Z,3.53
2023-07-03T10:21:25.283Z,3.78
2023-07-03T10:23:53.964Z,3.00
2023-07-03T10:26:25.872Z,3.38
2023-07-03T10:28:59.619Z,3.67
2023-07-03T10:31:34.980Z,3.38
2023-07-03T10:34:08.414Z,3.78
2023-07-03T10:36:37.857Z,3.70
2023-07-03T10:39:11.289Z,3.55
2023-07-03T10:41:45.525Z,2.90
2023-07-03T10:44:18.248Z,2.92
2023-07-03T10:46:51.907Z,3.58
2023-07-03T10:49:26.657Z,3.47
2023-07-03T10:52:04.588Z,3.22
2023-07-03T10:54:38.338Z,3.30
2023-07-03T10:57:08.516Z,3.40
2023-07-03T10:59:41.579Z,3.63
2023-07-03T11:02:22.452Z,2.78
2023-07-03T11:05:00.128Z,3.00
2023-07-03T11:07:35.004Z,3.22
2023-07-03T11:10:10.962Z,2.92
2023-07-03T11:12:46.250Z,2.80
2023-07-03T11:15:24.830Z,3.03
2023-07-03T11:23:18.180Z,3.78
2023-07-03T11:28:33.397Z,3.53
2023-07-03T11:31:03.687Z,2.47
2023-07-03T11:36:06.928Z,2.85
2023-07-03T11:43:44.501Z,2.63
2023-07-03T11:46:18.985Z,2.85
2023-07-03T11:48:50.616Z,3.25
2023-07-03T11:51:34.194Z,2.50
2023-07-03T11:54:14.528Z,2.30
2023-07-03T11:56:52.107Z,2.70
2023-07-03T11:59:30.329Z,2.28
2023-07-03T12:02:46.661Z,1.88
2023-07-03T12:05:53.142Z,2.60
2023-07-03T12:08:45.027Z,3.13
2023-07-03T12:11:14.159Z,2.40
2023-07-03T12:13:52.242Z,2.45
2023-07-03T12:16:22.418Z,2.67
2023-07-03T12:19:02.226Z,2.70
2023-07-03T12:21:38.981Z,3.53
2023-07-03T12:24:21.408Z,3.17
2023-07-03T12:26:58.931Z,2.85
2023-07-03T12:29:26.672Z,3.08
2023-07-03T12:31:59.638Z,2.45
2023-07-03T12:34:28.082Z,2.65
2023-07-03T12:37:02.442Z,2.47
2023-07-03T12:39:32.978Z,2.42
2023-07-03T12:42:11.961Z,2.70
2023-07-03T12:44:40.061Z,3.00
2023-07-03T12:47:10.292Z,2.42
2023-07-03T12:50:00.807Z,2.45
2023-07-03T12:52:31.126Z,2.47
2023-07-03T12:57:35.462Z,2.83
2023-07-03T13:00:04.339Z,2.55
2023-07-03T13:02:33.317Z,2.47
2023-07-03T13:05:04.010Z,2.70
2023-07-03T13:07:32.656Z,3.05
2023-07-03T13:10:11.750Z,2.38
2023-07-03T13:12:41.015Z,2.50
2023-07-03T13:15:11.972Z,2.33
2023-07-03T13:17:41.677Z,2.60
2023-07-03T13:20:22.294Z,3.22
2023-07-03T13:22:52.224Z,2.47
2023-07-03T13:25:30.921Z,3.47
2023-07-03T13:27:59.326Z,2.70
2023-07-03T13:30:32.966Z,2.97
2023-07-03T13:33:03.347Z,2.70
2023-07-03T13:35:35.288Z,2.63
2023-07-03T13:38:14.964Z,2.80
2023-07-03T13:40:44.064Z,2.67
2023-07-03T13:43:11.786Z,2.13
2023-07-03T13:45:39.926Z,2.97
2023-07-03T13:48:08.276Z,2.45
2023-07-03T13:50:36.067Z,2.58
2023-07-03T13:53:03.912Z,2.72
2023-07-03T13:55:32.000Z,2.55
2023-07-03T13:58:01.085Z,2.50
2023-07-03T14:00:29.041Z,2.10
2023-07-03T14:02:57.278Z,2.28
2023-07-03T14:05:25.165Z,2.38
2023-07-03T14:07:52.944Z,2.90
2023-07-03T14:10:20.751Z,2.85
2023-07-03T14:12:48.507Z,3.58
2023-07-03T14:15:21.580Z,3.10
2023-07-03T14:17:49.398Z,3.20
2023-07-03T14:20:17.297Z,3.10
2023-07-03T14:22:45.428Z,3.30
2023-07-03T14:25:14.922Z,2.55
2023-07-03T14:27:42.876Z,2.85
2023-07-03T14:30:12.472Z,2.80
2023-07-03T14:32:54.846Z,3.05
2023-07-03T14:35:23.827Z,2.40
2023-07-03T14:37:51.600Z,3.00
2023-07-03T14:40:19.430Z,2.95
2023-07-03T14:42:48.100Z,3.38
2023-07-03T14:45:16.050Z,2.80
2023-07-03T14:47:45.317Z,2.70
2023-07-03T14:50:13.709Z,3.20
2023-07-03T14:52:43.676Z,4.70
2023-07-03T14:55:11.916Z,3.80
2023-07-03T14:57:39.924Z,3.33
2023-07-03T15:00:09.861Z,3.50
2023-07-03T15:02:38.692Z,3.55
2023-07-03T15:05:09.094Z,4.45
2023-07-03T15:07:36.917Z,3.10
2023-07-03T15:10:05.033Z,3.50
2023-07-03T15:12:32.950Z,3.50
2023-07-03T15:15:00.795Z,2.88
2023-07-03T15:17:28.991Z,2.50
2023-07-03T15:19:56.991Z,2.90
2023-07-03T15:22:26.261Z,2.97
2023-07-03T15:24:54.026Z,2.80
2023-07-03T15:27:21.805Z,3.80
2023-07-03T15:29:49.554Z,2.67
2023-07-03T15:32:17.350Z,3.05
2023-07-03T15:34:45.105Z,4.03
2023-07-03T15:37:12.827Z,3.80
2023-07-03T15:39:42.152Z,3.17
2023-07-03T15:42:10.422Z,3.50
2023-07-03T15:44:38.236Z,2.80
2023-07-03T15:47:08.661Z,2.90
2023-07-03T15:49:37.618Z,4.00
2023-07-03T15:52:06.023Z,3.22
2023-07-03T15:54:38.189Z,2.47
2023-07-03T15:57:08.656Z,2.92
2023-07-03T15:59:37.107Z,2.90
2023-07-03T16:02:05.011Z,3.75
2023-07-03T16:04:32.796Z,3.38
2023-07-03T16:07:00.610Z,3.17
2023-07-03T16:09:28.365Z,3.15
2023-07-03T16:11:56.110Z,2.83
2023-07-03T16:14:25.271Z,2.90
2023-07-03T16:16:53.062Z,3.30
2023-07-03T16:19:20.865Z,3.13
2023-07-03T16:21:48.634Z,3.65
2023-07-03T16:24:16.414Z,2.72
2023-07-03T16:26:44.144Z,3.50
2023-07-03T16:29:12.001Z,4.85
2023-07-03T16:31:42.743Z,4.50
2023-07-03T16:34:12.438Z,4.45
2023-07-03T16:36:40.191Z,4.10
2023-07-03T16:39:07.948Z,3.28
2023-07-03T16:41:38.456Z,3.30
2023-07-03T16:44:06.245Z,3.30
2023-07-03T16:46:36.421Z,3.38
2023-07-03T16:49:07.892Z,3.90
2023-07-03T16:51:35.709Z,2.95
2023-07-03T16:54:03.503Z,3.20
2023-07-03T16:56:33.448Z,3.83
2023-07-03T16:59:01.303Z,3.30
2023-07-03T17:01:31.188Z,3.47
2023-07-03T17:03:59.126Z,3.75
2023-07-03T17:06:31.827Z,2.85
2023-07-03T17:09:00.488Z,3.20
2023-07-03T17:11:28.427Z,2.67
2023-07-03T17:13:56.507Z,3.33
2023-07-03T17:16:24.403Z,3.30
2023-07-03T17:18:52.167Z,3.17
2023-07-03T17:21:19.925Z,3.80
2023-07-03T17:23:51.753Z,2.78
2023-07-03T17:26:19.553Z,3.50
2023-07-03T17:28:48.541Z,3.90
2023-07-03T17:31:16.361Z,3.70
2023-07-03T17:33:44.222Z,3.58
2023-07-03T17:36:11.976Z,3.28
2023-07-03T17:38:39.693Z,2.90
2023-07-03T17:41:08.800Z,3.40
2023-07-03T17:43:37.840Z,3.83
2023-07-03T17:46:05.832Z,2.60
2023-07-03T17:48:33.763Z,3.08
2023-07-03T17:51:01.666Z,3.33
2023-07-03T17:53:29.425Z,3.70
2023-07-03T17:55:57.265Z,3.35
2023-07-03T17:58:26.493Z,3.05
2023-07-03T18:00:59.945Z,3.25
2023-07-03T18:03:27.838Z,3.10
2023-07-03T18:05:56.487Z,3.50
2023-07-03T18:08:24.497Z,3.15
2023-07-03T18:10:52.741Z,2.83
2023-07-03T18:13:20.652Z,3.30
2023-07-03T18:15:50.452Z,3.40
2023-07-03T18:18:20.636Z,3.38
2023-07-03T18:20:48.663Z,3.05
2023-07-03T18:23:16.468Z,3.38
2023-07-03T18:25:44.245Z,3.95
2023-07-03T18:28:12.288Z,3.40
2023-07-03T18:30:40.094Z,3.03
2023-07-03T18:33:09.265Z,3.30
2023-07-03T18:35:37.809Z,3.40
2023-07-03T18:38:06.275Z,3.15
2023-07-03T18:40:34.318Z,3.13
2023-07-03T18:43:02.352Z,3.05
2023-07-03T18:45:30.068Z,3.40
2023-07-03T18:47:57.850Z,3.22
2023-07-03T18:50:27.035Z,3.17
2023-07-03T18:52:54.831Z,2.50
2023-07-03T18:55:23.223Z,3.25
2023-07-03T18:57:51.356Z,3.08
2023-07-03T19:00:19.355Z,2.90
2023-07-03T19:02:47.184Z,2.70
2023-07-03T19:05:15.317Z,3.17
2023-07-03T19:07:44.830Z,2.90
2023-07-03T19:10:18.290Z,3.47
2023-07-03T19:12:46.758Z,3.08
2023-07-03T19:15:14.647Z,2.55
2023-07-03T19:17:42.604Z,2.35
2023-07-03T19:20:14.058Z,3.85
2023-07-03T19:22:42.010Z,2.83
2023-07-03T19:25:11.474Z,3.28
2023-07-03T19:27:39.249Z,3.25
2023-07-03T19:30:09.827Z,2.72
2023-07-03T19:32:37.639Z,3.15
2023-07-03T19:35:07.069Z,3.22
2023-07-03T19:37:34.860Z,2.72
2023-07-03T19:40:05.818Z,2.72
2023-07-03T19:42:35.821Z,2.60
2023-07-03T19:45:04.112Z,2.50
2023-07-03T19:47:31.936Z,2.33
2023-07-03T19:49:59.810Z,2.25
2023-07-03T19:52:28.066Z,2.95
2023-07-03T19:54:56.645Z,2.67
2023-07-03T19:57:24.421Z,3.17
2023-07-03T19:59:55.386Z,3.58
2023-07-03T20:02:23.150Z,3.05
2023-07-03T20:04:51.055Z,2.30
2023-07-03T20:07:18.851Z,2.60
2023-07-03T20:09:47.359Z,2.70
2023-07-03T20:12:15.153Z,2.13
2023-07-03T20:14:44.397Z,2.70
2023-07-03T20:17:13.629Z,3.25
2023-07-03T20:19:41.444Z,2.65
2023-07-03T20:22:09.232Z,2.55
2023-07-03T20:24:37.026Z,2.83
2023-07-03T20:27:05.371Z,3.15
2023-07-03T20:29:33.203Z,2.95
2023-07-03T20:32:01.453Z,2.30
2023-07-03T20:34:30.630Z,2.78
2023-07-03T20:36:58.452Z,2.47
2023-07-03T20:39:26.188Z,2.83
2023-07-03T20:41:53.944Z,2.72
2023-07-03T20:44:21.834Z,3.08
2023-07-03T20:46:51.312Z,2.65
2023-07-03T20:49:19.712Z,3.08
2023-07-03T20:51:53.804Z,2.72
2023-07-03T20:54:34.262Z,2.80
2023-07-03T20:57:03.066Z,2.85
2023-07-03T20:59:30.995Z,2.25
2023-07-03T21:01:58.805Z,2.75
2023-07-03T21:04:26.988Z,2.92
2023-07-03T21:06:56.369Z,2.33
2023-07-03T21:09:24.160Z,3.03
2023-07-03T21:11:51.941Z,3.00
2023-07-03T21:14:19.985Z,2.80
2023-07-03T21:16:47.895Z,2.13
2023-07-03T21:19:15.859Z,3.33
2023-07-03T21:21:43.613Z,3.15
2023-07-03T21:24:13.869Z,3.20
2023-07-03T21:26:41.660Z,2.53
2023-07-03T21:29:09.464Z,2.42
2023-07-03T21:31:38.211Z,2.40
2023-07-03T21:34:06.692Z,3.00
2023-07-03T21:36:34.706Z,2.85
2023-07-03T21:39:05.608Z,2.17
2023-07-03T21:41:37.445Z,2.50
2023-07-03T21:44:13.011Z,3.25
2023-07-03T21:46:41.712Z,2.60
2023-07-03T21:49:12.705Z,2.25
2023-07-03T21:51:40.501Z,2.58
2023-07-03T21:54:08.294Z,3.90
2023-07-03T21:56:39.472Z,3.08
2023-07-03T21:59:07.581Z,2.72
2023-07-03T22:01:37.721Z,2.65
2023-07-03T22:04:07.102Z,2.50
2023-07-03T22:06:34.947Z,3.10
2023-07-03T22:09:02.993Z,2.83
2023-07-03T22:11:31.656Z,3.10
2023-07-03T22:14:00.978Z,3.20
2023-07-03T22:16:28.867Z,3.10
2023-07-03T22:18:56.642Z,2.75
2023-07-03T22:21:25.271Z,2.92
2023-07-03T22:23:53.570Z,3.15
2023-07-03T22:26:21.871Z,3.22
2023-07-03T22:28:49.757Z,3.05
2023-07-03T22:31:19.047Z,2.85
2023-07-03T22:33:46.863Z,3.08
2023-07-03T22:36:14.995Z,3.03
2023-07-03T22:38:42.873Z,3.20
2023-07-03T22:41:11.591Z,3.40
2023-07-03T22:43:40.720Z,2.88
2023-07-03T22:46:10.555Z,3.17
2023-07-03T22:48:42.296Z,3.00
2023-07-03T22:51:11.255Z,4.07
2023-07-03T22:53:39.275Z,3.20
2023-07-03T22:56:07.999Z,2.95
2023-07-03T22:58:36.054Z,4.53
2023-07-03T23:01:08.177Z,2.83
2023-07-03T23:03:35.964Z,3.38
2023-07-03T23:06:07.265Z,3.17
2023-07-03T23:08:35.777Z,2.42
2023-07-03T23:11:03.668Z,2.85
2023-07-03T23:13:32.722Z,3.38
2023-07-03T23:16:05.341Z,3.45
2023-07-03T23:18:33.802Z,3.67
2023-07-03T23:21:03.962Z,3.85
2023-07-03T23:23:35.125Z,3.28
2023-07-03T23:26:05.010Z,2.85
2023-07-03T23:28:36.078Z,3.25
2023-07-03T23:31:06.489Z,3.10
2023-07-03T23:33:35.931Z,2.50
2023-07-03T23:36:07.051Z,4.13
2023-07-03T23:38:37.287Z,2.60
2023-07-03T23:41:05.815Z,2.63
2023-07-03T23:43:33.969Z,3.17
2023-07-03T23:46:04.290Z,2.55
2023-07-03T23:48:32.914Z,3.35
2023-07-03T23:51:03.623Z,3.45
2023-07-03T23:53:33.507Z,3.28
2023-07-03T23:56:05.632Z,3.03
2023-07-03T23:58:35.119Z,3.28
